Time;durP1;ratioP1;P1;durP2;ratioP2;P2;SDS_P1;SDS_P2;PMS_P1;PMS_P2;Temp;Humidity;BMP_temperature;BMP_pressure;BME280_temperature;BME280_humidity;BME280_pressure;Samples;Min_cycle;Max_cycle;Signal;HPM_P1;HPM_P2
2021/01/11 00:02:49;;;;;;;40.55;23.12;;;;;;;2.71;68.08;101324.45;1710829;83;21793;-56
2021/01/11 00:05:55;;;;;;;38.45;22.75;;;;;;;2.72;67.96;101311.31;1710826;83;21283;-56
2021/01/11 00:09:01;;;;;;;38.63;23.02;;;;;;;2.68;67.90;101307.09;1726233;83;21781;-56
2021/01/11 00:12:07;;;;;;;44.83;25.27;;;;;;;2.64;67.91;101313.66;1725796;83;21358;-55
2021/01/11 00:15:18;;;;;;;44.30;25.23;;;;;;;2.55;67.93;101329.15;1725235;83;21409;-55
2021/01/11 00:18:24;;;;;;;48.68;26.90;;;;;;;2.46;68.08;101331.09;1725754;83;21307;-56
2021/01/11 00:21:29;;;;;;;42.33;24.75;;;;;;;2.39;68.18;101317.62;1726133;83;21406;-56
2021/01/11 00:24:34;;;;;;;38.02;22.32;;;;;;;2.30;68.23;101333.94;1725906;83;21382;-55
2021/01/11 00:27:39;;;;;;;43.48;24.75;;;;;;;2.21;68.40;101333.67;1726264;83;21224;-55
2021/01/11 00:30:45;;;;;;;47.08;27.35;;;;;;;2.12;68.52;101344.60;1725057;83;21358;-56
2021/01/11 00:33:51;;;;;;;50.90;28.20;;;;;;;2.03;68.60;101356.48;1725915;83;21382;-56
2021/01/11 00:36:59;;;;;;;44.58;25.17;;;;;;;1.90;68.30;101344.25;1726189;83;21378;-54
2021/01/11 00:40:04;;;;;;;42.62;26.10;;;;;;;1.80;68.18;101342.20;1713841;83;21233;-56
2021/01/11 00:43:11;;;;;;;44.65;25.62;;;;;;;1.67;68.27;101334.48;1711178;83;21757;-56
2021/01/11 00:46:16;;;;;;;42.75;24.98;;;;;;;1.54;68.43;101324.48;1710880;83;21753;-55
2021/01/11 00:49:23;;;;;;;40.10;23.27;;;;;;;1.46;68.95;101326.78;1710499;83;21248;-56
2021/01/11 00:52:28;;;;;;;42.53;23.80;;;;;;;1.39;69.05;101326.80;1710456;83;21261;-56
2021/01/11 00:55:37;;;;;;;41.83;24.60;;;;;;;1.39;69.41;101332.66;1710794;84;21237;-56
2021/01/11 00:58:43;;;;;;;40.98;23.80;;;;;;;1.36;68.97;101327.46;1691989;83;21304;-55
2021/01/11 01:01:57;;;;;;;41.18;24.23;;;;;;;1.29;68.90;101308.56;1711159;83;21197;-56
2021/01/11 01:05:03;;;;;;;41.45;23.70;;;;;;;1.23;69.15;101295.46;1713054;83;21221;-56
2021/01/11 01:08:11;;;;;;;38.50;22.45;;;;;;;1.18;69.04;101297.57;1717376;83;21393;-56
2021/01/11 01:11:20;;;;;;;36.90;22.67;;;;;;;1.10;69.00;101303.44;1686392;84;21431;-56
2021/01/11 01:14:26;;;;;;;40.23;23.65;;;;;;;1.07;69.19;101298.70;1717220;83;21410;-55
2021/01/11 01:17:31;;;;;;;44.03;23.70;;;;;;;1.05;69.20;101298.80;1717232;83;21382;-55
2021/01/11 01:20:37;;;;;;;41.98;24.12;;;;;;;1.02;69.07;101294.95;1717117;83;21220;-55
2021/01/11 01:23:42;;;;;;;39.38;24.75;;;;;;;0.99;68.94;101307.27;1686725;84;21259;-55
2021/01/11 01:26:48;;;;;;;43.40;24.50;;;;;;;0.96;68.63;101315.54;1717356;83;21200;-55
2021/01/11 01:29:53;;;;;;;39.63;24.52;;;;;;;0.95;68.48;101313.79;1717305;83;21742;-55
2021/01/11 01:33:01;;;;;;;33.55;18.95;;;;;;;1.01;68.27;101312.56;1717256;83;21347;-55
2021/01/11 01:36:06;;;;;;;40.20;23.57;;;;;;;1.08;68.35;101308.05;1717393;83;21721;-55
2021/01/11 01:39:11;;;;;;;44.42;24.72;;;;;;;1.24;68.98;101320.11;1717295;83;21379;-54
2021/01/11 01:42:16;;;;;;;37.58;21.65;;;;;;;1.38;69.11;101332.25;1718701;83;21267;-56
2021/01/11 01:45:21;;;;;;;41.90;21.73;;;;;;;1.50;69.06;101328.34;1719553;83;21255;-56
2021/01/11 01:48:29;;;;;;;47.83;25.23;;;;;;;1.60;68.83;101322.37;1717881;83;21494;-56
2021/01/11 01:51:34;;;;;;;34.55;19.80;;;;;;;1.67;68.67;101322.34;1718010;83;21781;-56
2021/01/11 01:54:41;;;;;;;28.35;17.05;;;;;;;1.72;68.60;101325.63;1717615;83;21772;-56
2021/01/11 01:57:48;;;;;;;38.28;21.95;;;;;;;1.77;68.41;101316.29;1717597;83;21414;-56
2021/01/11 02:00:56;;;;;;;31.80;18.57;;;;;;;1.78;68.20;101313.09;1717622;83;21236;-55
2021/01/11 02:04:05;;;;;;;30.72;18.27;;;;;;;1.78;68.23;101313.97;1718003;83;21251;-55
2021/01/11 02:07:14;;;;;;;23.73;14.55;;;;;;;1.86;68.41;101326.50;1717681;83;21335;-57
2021/01/11 02:10:53;;;;;;;26.42;15.65;;;;;;;1.95;68.44;101331.80;1717658;83;21903;-55
2021/01/11 02:14:22;;;;;;;28.25;16.80;;;;;;;2.03;68.33;101330.32;1719305;83;21243;-55
2021/01/11 02:17:37;;;;;;;26.87;17.32;;;;;;;2.09;68.16;101336.70;1717856;83;21234;-55
2021/01/11 02:21:14;;;;;;;25.08;14.63;;;;;;;2.17;68.11;101334.84;1717863;83;21359;-55
2021/01/11 02:25:01;;;;;;;28.60;16.37;;;;;;;2.21;67.79;101328.27;1717786;83;21374;-56
2021/01/11 02:28:07;;;;;;;31.77;17.50;;;;;;;2.21;67.66;101337.25;1717778;83;21232;-55
2021/01/11 02:31:12;;;;;;;29.45;17.17;;;;;;;2.24;67.74;101319.96;1717625;83;21362;-54
2021/01/11 02:34:18;;;;;;;28.98;17.55;;;;;;;2.22;67.42;101317.87;1717581;83;21279;-56
2021/01/11 02:37:24;;;;;;;24.87;15.78;;;;;;;2.18;67.42;101320.37;1717686;83;21366;-55
2021/01/11 02:40:29;;;;;;;26.23;16.30;;;;;;;2.14;67.57;101333.70;1717679;83;21327;-55
2021/01/11 02:43:35;;;;;;;25.92;15.75;;;;;;;2.16;67.82;101340.72;1689317;84;21778;-55
2021/01/11 02:46:40;;;;;;;28.77;17.50;;;;;;;2.24;67.89;101355.08;1689251;83;21263;-55
2021/01/11 02:49:50;;;;;;;25.48;15.78;;;;;;;2.29;67.80;101361.92;1689243;85;21232;-55
2021/01/11 02:53:06;;;;;;;21.82;13.70;;;;;;;2.28;67.56;101364.73;1689219;85;21561;-55
2021/01/11 02:56:14;;;;;;;24.63;15.18;;;;;;;2.22;67.60;101360.58;1689315;85;21185;-55
2021/01/11 02:59:40;;;;;;;22.07;13.60;;;;;;;2.21;67.78;101366.95;1689181;85;21230;-55
2021/01/11 03:02:48;;;;;;;38.48;20.17;;;;;;;2.23;68.08;101355.58;1689153;85;21778;-55
2021/01/11 03:05:53;;;;;;;125.60;51.45;;;;;;;2.30;68.28;101344.74;1670173;84;21331;-55
2021/01/11 03:08:58;;;;;;;103.97;42.50;;;;;;;2.30;68.27;101338.49;1689183;83;21268;-54
2021/01/11 03:12:06;;;;;;;78.60;34.30;;;;;;;2.32;68.14;101345.98;1689304;85;21174;-56
2021/01/11 03:15:12;;;;;;;27.65;16.55;;;;;;;2.37;68.34;101351.97;1689198;85;21201;-56
2021/01/11 03:18:17;;;;;;;26.42;15.78;;;;;;;2.46;68.32;101356.28;1689186;85;21213;-55
2021/01/11 03:21:23;;;;;;;20.05;13.80;;;;;;;2.54;68.23;101350.36;1689265;85;21166;-55
2021/01/11 03:24:30;;;;;;;23.73;14.30;;;;;;;2.58;67.94;101355.97;1689256;85;21256;-55
2021/01/11 03:27:36;;;;;;;23.20;13.83;;;;;;;2.56;67.70;101353.37;1689253;85;21245;-55
2021/01/11 03:30:41;;;;;;;24.55;13.32;;;;;;;2.58;67.70;101355.49;1689240;85;21194;-54
2021/01/11 03:33:47;;;;;;;21.33;13.40;;;;;;;2.60;67.79;101356.23;1689242;85;21221;-54
2021/01/11 03:36:56;;;;;;;20.82;13.78;;;;;;;2.65;67.80;101356.80;1689176;85;21256;-54
2021/01/11 03:40:02;;;;;;;20.30;12.60;;;;;;;2.67;67.63;101343.18;1689161;85;21217;-54
2021/01/11 03:43:07;;;;;;;19.85;12.33;;;;;;;2.68;67.41;101339.53;1700233;82;21693;-55
2021/01/11 03:46:14;;;;;;;18.90;12.25;;;;;;;2.66;67.36;101338.76;1712405;83;21263;-55
2021/01/11 03:49:21;;;;;;;18.92;11.97;;;;;;;2.69;67.33;101345.31;1664431;86;21668;-55
2021/01/11 03:52:26;;;;;;;15.18;10.40;;;;;;;2.71;67.15;101354.19;1692856;85;21804;-54
2021/01/11 03:55:33;;;;;;;19.82;12.70;;;;;;;2.71;67.00;101348.78;1712610;83;21196;-55
2021/01/11 03:58:39;;;;;;;16.65;10.82;;;;;;;2.71;66.96;101347.44;1664540;86;21257;-55
2021/01/11 04:01:45;;;;;;;16.70;10.63;;;;;;;2.76;66.87;101339.85;1712798;83;21331;-55
2021/01/11 04:04:52;;;;;;;20.15;12.65;;;;;;;2.74;66.69;101338.61;1712510;83;21279;-55
2021/01/11 04:07:57;;;;;;;18.70;11.38;;;;;;;2.67;66.53;101349.47;1712552;83;21299;-55
2021/01/11 04:11:03;;;;;;;17.75;10.58;;;;;;;2.60;66.57;101355.39;1712172;83;21260;-55
2021/01/11 04:14:09;;;;;;;18.05;11.90;;;;;;;2.57;66.73;101367.25;1712329;83;21247;-54
2021/01/11 04:17:14;;;;;;;19.60;12.95;;;;;;;2.61;66.87;101359.81;1681963;85;21221;-55
2021/01/11 04:20:20;;;;;;;20.95;14.18;;;;;;;2.66;66.93;101368.48;1712336;83;21232;-55
2021/01/11 04:23:26;;;;;;;26.87;17.50;;;;;;;2.70;66.92;101375.41;1681082;85;21260;-55
2021/01/11 04:26:31;;;;;;;34.18;22.85;;;;;;;2.71;66.82;101383.42;1712682;83;21280;-54
2021/01/11 04:29:36;;;;;;;32.85;19.30;;;;;;;2.74;66.77;101390.48;1681720;85;21383;-55
2021/01/11 04:32:44;;;;;;;25.35;15.65;;;;;;;2.76;66.73;101407.44;1711350;83;21626;-56
2021/01/11 04:35:50;;;;;;;28.02;16.85;;;;;;;2.76;66.74;101408.80;1682483;85;21375;-56
2021/01/11 04:38:55;;;;;;;25.43;15.38;;;;;;;2.76;66.76;101408.80;1712202;83;21244;-55
2021/01/11 04:42:03;;;;;;;27.02;16.10;;;;;;;2.75;66.77;101407.06;1712445;83;21227;-55
2021/01/11 04:45:09;;;;;;;25.60;15.63;;;;;;;2.75;66.83;101408.42;1714732;83;21272;-55
2021/01/11 04:48:15;;;;;;;22.30;13.03;;;;;;;2.75;66.90;101397.13;1686142;84;21397;-56
2021/01/11 04:51:20;;;;;;;18.35;11.60;;;;;;;2.74;66.73;101399.43;1717240;83;21342;-56
2021/01/11 04:54:27;;;;;;;18.00;12.05;;;;;;;2.74;66.65;101402.64;1717349;83;21441;-55
2021/01/11 04:57:33;;;;;;;22.15;13.88;;;;;;;2.73;66.62;101413.92;1717330;83;21205;-56
2021/01/11 05:00:41;;;;;;;25.20;17.12;;;;;;;2.74;66.70;101418.36;1686910;84;21406;-57
2021/01/11 05:03:46;;;;;;;27.95;17.67;;;;;;;2.74;66.72;101412.95;1717353;83;21235;-54
2021/01/11 05:06:55;;;;;;;21.97;14.03;;;;;;;2.74;66.53;101394.02;1717325;83;21224;-55
2021/01/11 05:10:01;;;;;;;26.10;16.73;;;;;;;2.70;66.47;101396.56;1717224;83;21291;-55
2021/01/11 05:13:11;;;;;;;24.87;15.53;;;;;;;2.70;66.37;101386.22;1717140;83;21391;-56
2021/01/11 05:16:22;;;;;;;22.82;13.53;;;;;;;2.69;66.55;101396.19;1717300;83;21370;-55
2021/01/11 05:19:32;;;;;;;25.37;14.50;;;;;;;2.70;66.37;101387.10;1658452;86;21519;-54
2021/01/11 05:22:38;;;;;;;26.65;15.88;;;;;;;2.76;66.12;101391.22;1691952;85;21808;-55
2021/01/11 05:25:46;;;;;;;28.62;18.55;;;;;;;2.78;66.06;101398.75;1685861;85;21366;-55
2021/01/11 05:28:51;;;;;;;27.45;18.42;;;;;;;2.80;66.05;101387.36;1717584;83;21848;-56
2021/01/11 05:32:09;;;;;;;28.17;18.57;;;;;;;2.80;65.84;101396.82;1717157;83;21283;-54
2021/01/11 05:35:17;;;;;;;34.70;22.00;;;;;;;2.77;66.08;101406.02;1716999;83;21216;-54
2021/01/11 05:38:24;;;;;;;31.97;21.55;;;;;;;2.77;66.04;101405.14;1686638;84;21411;-55
2021/01/11 05:41:36;;;;;;;59.55;34.38;;;;;;;2.78;65.98;101398.28;1717415;83;21840;-54
2021/01/11 05:44:43;;;;;;;59.65;30.68;;;;;;;2.80;65.79;101402.23;1716885;82;21219;-55
2021/01/11 05:48:07;;;;;;;65.12;34.70;;;;;;;2.79;65.62;101415.38;1714485;83;21662;-55
2021/01/11 05:51:14;;;;;;;63.95;33.05;;;;;;;2.74;65.72;101422.92;1714248;83;21215;-55
2021/01/11 05:54:34;;;;;;;57.23;28.25;;;;;;;2.77;66.05;101428.12;1692337;83;21422;-55
2021/01/11 05:57:39;;;;;;;52.48;26.82;;;;;;;2.77;65.74;101416.83;1684011;85;21406;-55
2021/01/11 06:00:46;;;;;;;38.90;22.62;;;;;;;2.75;65.73;101421.46;1664095;86;21216;-55
2021/01/11 06:03:51;;;;;;;32.65;18.85;;;;;;;2.75;65.98;101428.22;1687638;84;22088;-54
2021/01/11 06:07:00;;;;;;;25.27;14.63;;;;;;;2.76;65.94;101431.77;1695330;83;21338;-55
2021/01/11 06:10:05;;;;;;;46.33;25.37;;;;;;;2.77;65.80;101437.58;1712068;83;21280;-55
2021/01/11 06:13:18;;;;;;;27.32;15.32;;;;;;;2.77;65.61;101435.76;1689540;85;21758;-55
2021/01/11 06:16:28;;;;;;;32.73;22.32;;;;;;;2.79;65.62;101434.30;1691952;85;21206;-55
2021/01/11 06:19:33;;;;;;;24.82;16.07;;;;;;;2.84;65.62;101437.55;1712662;83;21215;-54
2021/01/11 06:22:55;;;;;;;22.62;16.02;;;;;;;2.88;65.55;101439.09;1711127;84;21192;-55
2021/01/11 06:26:01;;;;;;;21.27;13.13;;;;;;;2.93;65.37;101451.83;1681208;83;21757;-56
2021/01/11 06:29:08;;;;;;;27.75;17.55;;;;;;;2.91;65.34;101456.46;1674657;84;21742;-54
2021/01/11 06:32:28;;;;;;;21.55;13.18;;;;;;;2.91;65.42;101461.40;1625929;86;21253;-55
2021/01/11 06:35:38;;;;;;;22.55;14.78;;;;;;;2.97;65.40;101460.98;1678599;84;21235;-55
2021/01/11 06:38:45;;;;;;;24.18;17.95;;;;;;;3.05;65.30;101464.05;1684604;84;21374;-55
2021/01/11 06:41:51;;;;;;;26.37;16.37;;;;;;;3.12;65.17;101463.64;1688845;85;21250;-55
2021/01/11 06:45:04;;;;;;;27.70;15.88;;;;;;;3.16;65.06;101457.03;1712101;82;21224;-55
2021/01/11 06:48:11;;;;;;;28.05;13.90;;;;;;;3.18;64.92;101451.92;1718514;82;21248;-56
2021/01/11 06:51:18;;;;;;;21.87;14.38;;;;;;;3.18;64.85;101450.58;1671460;85;21249;-56
2021/01/11 06:54:24;;;;;;;20.32;12.82;;;;;;;3.19;64.76;101452.30;1680239;84;21754;-54
2021/01/11 06:57:32;;;;;;;20.43;13.20;;;;;;;3.18;64.77;101457.81;1711109;83;21189;-54
2021/01/11 07:00:44;;;;;;;39.20;28.40;;;;;;;3.21;64.87;101446.30;1681006;84;21275;-54
2021/01/11 07:03:58;;;;;;;27.80;15.23;;;;;;;3.22;64.86;101435.86;1706859;84;21301;-55
2021/01/11 07:07:08;;;;;;;24.27;12.80;;;;;;;3.24;64.82;101445.22;1710936;84;21204;-54
2021/01/11 07:10:17;;;;;;;28.30;13.85;;;;;;;3.21;64.74;101438.19;1710748;84;21220;-54
2021/01/11 07:13:32;;;;;;;30.05;16.23;;;;;;;3.20;64.82;101445.94;1703180;84;21337;-55
2021/01/11 07:16:56;;;;;;;32.45;18.20;;;;;;;3.20;64.85;101440.53;1710056;84;21260;-55
2021/01/11 07:20:02;;;;;;;25.92;14.98;;;;;;;3.22;64.97;101433.15;1676740;85;21202;-55
2021/01/11 07:23:10;;;;;;;23.12;13.62;;;;;;;3.31;64.97;101439.79;1674048;84;21288;-56
2021/01/11 07:26:21;;;;;;;27.32;15.25;;;;;;;3.37;64.90;101436.18;1701095;83;21322;-55
2021/01/11 07:29:26;;;;;;;48.48;28.00;;;;;;;3.43;64.79;101433.05;1706136;82;21223;-55
2021/01/11 07:32:39;;;;;;;42.90;27.10;;;;;;;3.44;64.68;101436.64;1685937;85;21189;-54
2021/01/11 07:35:48;;;;;;;217.28;134.00;;;;;;;3.46;64.57;101441.44;1679512;85;21268;-55
2021/01/11 07:38:54;;;;;;;58.92;36.48;;;;;;;3.48;64.62;101444.44;1703371;82;21792;-55
2021/01/11 07:42:08;;;;;;;29.00;18.62;;;;;;;3.56;64.53;101450.67;1707941;84;21590;-55
2021/01/11 07:45:18;;;;;;;20.70;13.15;;;;;;;3.63;64.22;101450.64;1696208;84;21623;-56
2021/01/11 07:48:29;;;;;;;18.35;11.97;;;;;;;3.65;64.03;101450.91;1682143;80;21777;-54
2021/01/11 07:51:36;;;;;;;23.77;15.95;;;;;;;3.67;64.00;101453.02;1691006;83;21625;-52
2021/01/11 07:54:42;;;;;;;17.57;11.00;;;;;;;3.74;63.97;101447.55;1714146;82;21223;-52
2021/01/11 07:57:47;;;;;;;45.40;25.92;;;;;;;3.81;63.85;101445.28;1711510;83;21275;-51
2021/01/11 08:00:53;;;;;;;21.65;13.22;;;;;;;3.81;63.49;101435.80;1708928;83;21223;-52
2021/01/11 08:04:03;;;;;;;16.23;10.72;;;;;;;3.77;63.47;101454.61;1709733;83;21227;-54
2021/01/11 08:07:11;;;;;;;19.55;12.40;;;;;;;3.76;63.47;101463.21;1713835;83;21224;-53
2021/01/11 08:10:17;;;;;;;19.67;12.68;;;;;;;3.77;63.65;101464.97;1696889;83;21312;-55
2021/01/11 08:13:23;;;;;;;15.83;10.08;;;;;;;3.82;63.63;101461.94;1686996;84;21190;-55
2021/01/11 08:16:30;;;;;;;16.12;10.70;;;;;;;3.88;63.47;101456.95;1709206;83;22006;-54
2021/01/11 08:19:36;;;;;;;16.05;10.45;;;;;;;3.89;63.19;101445.14;1675446;84;21609;-54
2021/01/11 08:22:43;;;;;;;19.73;12.78;;;;;;;3.91;63.18;101450.45;1685480;85;21228;-55
2021/01/11 08:25:48;;;;;;;18.98;11.08;;;;;;;3.91;63.04;101449.09;1681231;83;21737;-55
2021/01/11 08:29:01;;;;;;;20.40;12.75;;;;;;;3.90;62.93;101431.97;1706223;83;21248;-54
2021/01/11 08:32:26;;;;;;;19.62;13.60;;;;;;;3.88;62.97;101428.52;1680328;85;21339;-54
2021/01/11 08:35:39;;;;;;;23.12;15.80;;;;;;;3.94;63.02;101424.02;1707627;83;21398;-56
2021/01/11 08:39:19;;;;;;;16.45;11.28;;;;;;;4.02;63.04;101424.34;1709294;83;21257;-55
2021/01/11 08:42:29;;;;;;;18.67;12.98;;;;;;;4.09;62.85;101422.91;1702082;83;21234;-55
2021/01/11 08:45:44;;;;;;;15.05;10.88;;;;;;;4.15;62.74;101413.02;1703684;83;21203;-54
2021/01/11 08:48:49;;;;;;;14.10;9.25;;;;;;;4.21;62.71;101415.28;1706010;81;21231;-55
2021/01/11 08:51:55;;;;;;;15.72;11.10;;;;;;;4.19;62.42;101419.06;1708472;82;21317;-55
2021/01/11 08:55:00;;;;;;;16.37;11.85;;;;;;;4.09;62.36;101421.56;1702107;83;21284;-55
2021/01/11 08:58:09;;;;;;;14.50;10.35;;;;;;;4.08;62.50;101426.61;1720619;82;21244;-55
2021/01/11 09:01:25;;;;;;;13.30;9.10;;;;;;;4.13;62.71;101431.22;1701433;83;21215;-55
2021/01/11 09:04:45;;;;;;;13.10;9.03;;;;;;;4.23;62.56;101431.42;1687615;83;21597;-55
2021/01/11 09:07:51;;;;;;;13.18;9.15;;;;;;;4.27;62.24;101433.80;1691456;83;21224;-55
2021/01/11 09:10:56;;;;;;;13.80;10.05;;;;;;;4.24;62.29;101429.96;1690382;83;21715;-56
2021/01/11 09:14:15;;;;;;;15.68;11.05;;;;;;;4.23;62.03;101436.85;1717257;83;21374;-56
2021/01/11 09:17:20;;;;;;;14.93;10.00;;;;;;;4.19;62.04;101430.77;1689657;83;21761;-56
2021/01/11 09:20:27;;;;;;;14.68;9.73;;;;;;;4.24;62.13;101431.80;1711078;83;21240;-55
2021/01/11 09:23:32;;;;;;;17.82;12.10;;;;;;;4.27;62.01;101424.31;1715649;82;21276;-56
2021/01/11 09:26:42;;;;;;;13.60;10.03;;;;;;;4.33;61.90;101423.87;1717817;83;21470;-56
2021/01/11 09:29:47;;;;;;;37.38;26.35;;;;;;;4.35;61.70;101423.28;1716219;83;21267;-56
2021/01/11 09:32:53;;;;;;;16.30;11.50;;;;;;;4.35;61.44;101421.92;1716768;82;21199;-55
2021/01/11 09:35:58;;;;;;;19.48;15.53;;;;;;;4.33;61.34;101427.94;1691389;85;21189;-55
2021/01/11 09:39:03;;;;;;;13.83;9.05;;;;;;;4.31;61.41;101435.81;1660892;86;21193;-55
2021/01/11 09:42:10;;;;;;;13.43;9.78;;;;;;;4.33;61.54;101434.71;1688146;84;21372;-55
2021/01/11 09:45:16;;;;;;;14.10;10.05;;;;;;;4.32;61.42;101437.05;1692012;84;21228;-56
2021/01/11 09:48:23;;;;;;;12.70;9.28;;;;;;;4.30;61.46;101428.16;1693778;83;21457;-55
2021/01/11 09:51:36;;;;;;;16.97;11.35;;;;;;;4.35;61.63;101428.70;1711083;83;21896;-56
2021/01/11 09:54:42;;;;;;;18.12;12.47;;;;;;;4.37;61.33;101421.33;1720691;83;21231;-57
2021/01/11 09:57:47;;;;;;;19.50;14.18;;;;;;;4.43;61.26;101413.23;1697518;83;21207;-55
2021/01/11 10:00:52;;;;;;;16.82;11.43;;;;;;;4.51;61.14;101408.98;1664574;86;21255;-56
2021/01/11 10:03:58;;;;;;;16.05;10.00;;;;;;;4.59;61.06;101401.16;1662651;85;21271;-53
2021/01/11 10:07:04;;;;;;;13.45;9.20;;;;;;;4.70;60.72;101395.41;1715635;83;21321;-56
2021/01/11 10:10:09;;;;;;;15.28;9.10;;;;;;;4.67;60.50;101396.52;1663223;86;21611;-56
2021/01/11 10:13:15;;;;;;;11.95;8.20;;;;;;;4.66;60.38;101403.41;1652558;86;21252;-56
2021/01/11 10:16:20;;;;;;;13.58;9.55;;;;;;;4.63;60.25;101398.22;1722875;83;22030;-56
2021/01/11 10:19:30;;;;;;;14.65;10.48;;;;;;;4.66;59.91;101393.92;1724746;83;21765;-55
2021/01/11 10:22:36;;;;;;;12.58;8.18;;;;;;;4.62;59.76;101387.85;1724725;83;21309;-55
2021/01/11 10:25:42;;;;;;;12.58;8.55;;;;;;;4.56;59.84;101381.05;1724589;81;21773;-55
2021/01/11 10:28:48;;;;;;;15.23;9.00;;;;;;;4.63;59.92;101383.30;1726585;83;21369;-55
2021/01/11 10:31:54;;;;;;;14.25;9.00;;;;;;;4.70;59.71;101385.92;1726385;83;21215;-55
2021/01/11 10:35:01;;;;;;;15.98;11.33;;;;;;;4.67;59.72;101388.38;1727034;83;21357;-55
2021/01/11 10:38:06;;;;;;;11.10;8.35;;;;;;;4.67;59.51;101388.86;1720124;83;21255;-56
2021/01/11 10:41:11;;;;;;;12.75;9.15;;;;;;;4.66;59.24;101385.78;1665134;86;21264;-55
2021/01/11 10:44:16;;;;;;;15.08;9.40;;;;;;;4.66;59.23;101392.56;1650551;86;21272;-55
2021/01/11 10:47:21;;;;;;;15.68;10.68;;;;;;;4.63;59.43;101388.73;1725820;83;21743;-56
2021/01/11 10:50:28;;;;;;;14.28;10.28;;;;;;;4.51;59.53;101394.55;1722866;82;21239;-54
2021/01/11 10:53:33;;;;;;;15.53;10.48;;;;;;;4.25;59.99;101397.80;1716397;83;21922;-54
2021/01/11 10:56:38;;;;;;;14.95;10.80;;;;;;;4.00;60.36;101403.27;1716965;83;21342;-56
2021/01/11 10:59:43;;;;;;;19.45;11.18;;;;;;;3.79;60.99;101398.00;1716311;83;21402;-57
2021/01/11 11:02:49;;;;;;;16.73;12.43;;;;;;;3.67;61.41;101412.41;1703152;83;21621;-57
2021/01/11 11:05:55;;;;;;;16.30;11.20;;;;;;;3.58;61.82;101410.36;1682039;84;21374;-56
2021/01/11 11:09:00;;;;;;;24.92;12.65;;;;;;;3.51;62.29;101408.16;1708649;82;21738;-55
2021/01/11 11:12:06;;;;;;;16.40;11.35;;;;;;;3.54;62.55;101412.87;1719133;82;21232;-58
2021/01/11 11:15:15;;;;;;;14.78;10.28;;;;;;;3.57;62.52;101412.66;1709408;83;21325;-59
2021/01/11 11:18:20;;;;;;;17.35;10.18;;;;;;;3.59;62.39;101416.14;1710783;82;21882;-55
2021/01/11 11:21:25;;;;;;;16.12;11.10;;;;;;;3.71;62.34;101421.20;1710532;83;21219;-54
2021/01/11 11:24:33;;;;;;;15.00;9.73;;;;;;;3.82;62.04;101416.73;1717883;82;21295;-56
2021/01/11 11:27:42;;;;;;;13.80;9.53;;;;;;;3.85;61.60;101409.78;1716805;83;21227;-56
2021/01/11 11:30:49;;;;;;;16.42;11.00;;;;;;;3.85;61.39;101417.03;1687670;84;21178;-55
2021/01/11 11:33:55;;;;;;;14.70;10.32;;;;;;;3.77;61.23;101418.93;1712125;82;21243;-56
2021/01/11 11:37:04;;;;;;;19.32;12.10;;;;;;;3.74;61.25;101407.44;1710245;83;21272;-56
2021/01/11 11:40:12;;;;;;;12.35;9.08;;;;;;;3.68;61.20;101416.84;1710128;82;21241;-56
2021/01/11 11:43:17;;;;;;;24.70;15.43;;;;;;;3.65;61.16;101417.53;1710806;83;21324;-54
2021/01/11 11:46:23;;;;;;;18.37;11.45;;;;;;;3.59;61.29;101413.43;1686565;84;21202;-55
2021/01/11 11:49:29;;;;;;;16.67;10.90;;;;;;;3.60;61.37;101415.16;1689167;85;21259;-55
2021/01/11 11:52:33;;;;;;;15.80;10.08;;;;;;;3.54;61.42;101416.94;1711093;83;21272;-54
2021/01/11 11:55:38;;;;;;;13.83;9.43;;;;;;;3.51;61.54;101420.34;1710801;82;21702;-54
2021/01/11 11:58:43;;;;;;;13.70;9.60;;;;;;;3.50;61.60;101423.55;1711550;84;21280;-54
2021/01/11 12:01:48;;;;;;;13.78;9.35;;;;;;;3.56;61.50;101420.41;1712187;83;21606;-56
2021/01/11 12:04:53;;;;;;;15.55;10.40;;;;;;;3.62;61.48;101422.69;1689325;83;21806;-55
2021/01/11 12:07:59;;;;;;;15.98;10.80;;;;;;;3.69;61.41;101419.95;1710612;82;21792;-56
2021/01/11 12:11:04;;;;;;;15.70;9.28;;;;;;;3.79;61.43;101429.66;1707878;83;21247;-55
2021/01/11 12:14:09;;;;;;;13.20;9.45;;;;;;;3.82;60.98;101430.28;1706780;82;21240;-55
2021/01/11 12:17:15;;;;;;;14.18;10.43;;;;;;;3.80;60.94;101421.42;1689624;83;21193;-55
2021/01/11 12:20:22;;;;;;;13.65;9.90;;;;;;;3.77;60.46;101428.41;1705254;83;21848;-56
2021/01/11 12:23:28;;;;;;;12.13;8.78;;;;;;;3.67;60.58;101432.72;1708191;83;21609;-56
2021/01/11 12:26:34;;;;;;;12.55;8.85;;;;;;;3.62;60.49;101434.88;1708115;83;21777;-55
2021/01/11 12:29:39;;;;;;;11.33;8.45;;;;;;;3.57;60.57;101442.44;1699991;83;21243;-56
2021/01/11 12:32:46;;;;;;;12.25;7.78;;;;;;;3.54;60.70;101438.59;1706355;82;21563;-55
2021/01/11 12:35:52;;;;;;;10.95;7.87;;;;;;;3.55;60.69;101437.61;1686646;83;21264;-56
2021/01/11 12:38:57;;;;;;;11.83;8.40;;;;;;;3.55;60.56;101436.25;1688486;84;21284;-54
2021/01/11 12:42:03;;;;;;;12.60;8.30;;;;;;;3.50;60.67;101453.33;1646141;86;21250;-56
2021/01/11 12:45:09;;;;;;;13.25;9.28;;;;;;;3.48;60.69;101453.03;1649289;86;21227;-55
2021/01/11 12:48:15;;;;;;;24.95;13.95;;;;;;;3.45;60.72;101445.12;1689020;83;21511;-55
2021/01/11 12:51:28;;;;;;;14.98;9.13;;;;;;;3.46;60.75;101452.26;1673058;83;21267;-55
2021/01/11 12:54:33;;;;;;;12.70;9.05;;;;;;;3.43;60.63;101457.88;1691073;83;21591;-55
2021/01/11 12:57:41;;;;;;;13.75;10.05;;;;;;;3.33;60.71;101453.58;1705847;84;21673;-54
2021/01/11 13:00:48;;;;;;;14.35;10.18;;;;;;;3.27;60.87;101458.06;1708141;84;21220;-54
2021/01/11 13:03:55;;;;;;;16.37;10.25;;;;;;;3.30;61.09;101453.79;1691673;84;21260;-54
2021/01/11 13:07:00;;;;;;;20.20;11.35;;;;;;;3.35;61.22;101456.18;1705484;83;21726;-55
2021/01/11 13:10:05;;;;;;;22.58;15.40;;;;;;;3.41;61.11;101452.58;1706102;84;21224;-55
2021/01/11 13:13:09;;;;;;;17.77;11.57;;;;;;;3.47;60.94;101452.19;1698536;84;22085;-56
2021/01/11 13:16:13;;;;;;;16.07;10.35;;;;;;;3.55;60.87;101448.95;1694650;82;21875;-54
2021/01/11 13:19:19;;;;;;;16.02;10.72;;;;;;;3.60;60.82;101458.47;1683289;84;21695;-56
2021/01/11 13:22:26;;;;;;;15.05;9.75;;;;;;;3.60;60.63;101452.21;1683378;85;21232;-55
2021/01/11 13:25:31;;;;;;;14.15;9.08;;;;;;;3.63;60.67;101457.41;1683590;85;21370;-55
2021/01/11 13:28:36;;;;;;;15.05;10.18;;;;;;;3.63;60.67;101447.42;1688725;83;21473;-55
2021/01/11 13:31:45;;;;;;;21.73;14.35;;;;;;;3.69;60.54;101455.15;1689006;83;21369;-56
2021/01/11 13:34:52;;;;;;;24.37;13.75;;;;;;;3.68;60.29;101446.63;1683616;84;21300;-55
2021/01/11 13:37:59;;;;;;;33.38;19.55;;;;;;;3.67;60.26;101446.73;1715790;83;21721;-55
2021/01/11 13:41:04;;;;;;;38.83;20.52;;;;;;;3.63;60.37;101447.42;1698806;83;21386;-56
2021/01/11 13:44:10;;;;;;;37.48;18.32;;;;;;;3.64;60.39;101437.00;1716164;83;21378;-55
2021/01/11 13:47:16;;;;;;;32.48;16.42;;;;;;;3.67;60.30;101449.44;1684701;84;21232;-55
2021/01/11 13:50:23;;;;;;;24.75;13.15;;;;;;;3.68;60.35;101447.13;1715755;83;21211;-55
2021/01/11 13:53:27;;;;;;;23.98;13.68;;;;;;;3.68;60.07;101452.04;1681145;81;21190;-56
2021/01/11 13:56:34;;;;;;;21.55;14.03;;;;;;;3.65;60.07;101452.25;1684574;84;21207;-55
2021/01/11 13:59:39;;;;;;;81.82;37.98;;;;;;;3.62;60.05;101452.95;1681522;84;21227;-54
2021/01/11 14:02:43;;;;;;;88.40;44.05;;;;;;;3.59;60.27;101449.98;1684318;84;21856;-56
2021/01/11 14:05:49;;;;;;;41.53;24.63;;;;;;;3.58;60.23;101460.44;1679529;84;21821;-55
2021/01/11 14:08:54;;;;;;;47.25;26.33;;;;;;;3.57;60.25;101459.19;1705633;83;21222;-56
2021/01/11 14:12:06;;;;;;;50.30;26.57;;;;;;;3.58;60.33;101455.02;1698507;83;21244;-56
2021/01/11 14:15:12;;;;;;;57.45;27.60;;;;;;;3.60;60.24;101457.12;1654766;85;21205;-55
2021/01/11 14:18:16;;;;;;;34.48;19.55;;;;;;;3.58;60.21;101458.20;1674842;84;21246;-56
2021/01/11 14:21:24;;;;;;;43.08;24.52;;;;;;;3.56;60.26;101462.84;1653653;86;21402;-56
2021/01/11 14:24:32;;;;;;;35.60;23.60;;;;;;;3.57;60.42;101460.55;1681390;85;21395;-55
2021/01/11 14:27:38;;;;;;;31.50;19.55;;;;;;;3.61;60.42;101460.70;1705855;83;21260;-55